createdAt,value
2022-10-28T00:01:19.744Z,22.15
2022-10-28T00:03:48.366Z,19.65
2022-10-28T00:06:17.632Z,18.15
2022-10-28T00:08:44.495Z,20.85
2022-10-28T00:11:19.281Z,16.70
2022-10-28T00:13:46.388Z,23.75
2022-10-28T00:16:14.065Z,18.58
2022-10-28T00:18:41.116Z,20.95
2022-10-28T00:21:18.187Z,23.20
2022-10-28T00:23:45.167Z,17.75
2022-10-28T00:26:19.772Z,20.15
2022-10-28T00:28:48.747Z,20.92
2022-10-28T00:31:17.676Z,21.13
2022-10-28T00:33:44.622Z,20.02
2022-10-28T00:36:19.267Z,25.35
2022-10-28T00:38:46.862Z,17.92
2022-10-28T00:41:21.384Z,21.20
2022-10-28T00:43:55.979Z,20.77
2022-10-28T00:46:33.447Z,19.65
2022-10-28T00:49:03.352Z,21.58
2022-10-28T00:51:30.094Z,21.50
2022-10-28T00:53:56.877Z,22.80
2022-10-28T00:58:57.613Z,19.73
2022-10-28T01:01:24.495Z,18.05
2022-10-28T01:03:51.299Z,18.75
2022-10-28T01:06:18.138Z,21.17
2022-10-28T01:08:44.921Z,18.15
2022-10-28T01:11:24.765Z,21.50
2022-10-28T01:14:16.184Z,19.75
2022-10-28T01:17:04.354Z,18.33
2022-10-28T01:19:53.809Z,19.17
2022-10-28T01:22:20.782Z,19.58
2022-10-28T01:25:12.350Z,23.90
2022-10-28T01:28:16.848Z,20.02
2022-10-28T01:31:25.285Z,21.00
2022-10-28T01:34:07.323Z,17.83
2022-10-28T01:36:41.082Z,24.98
2022-10-28T01:39:24.051Z,20.58
2022-10-28T01:42:02.835Z,22.20
2022-10-28T01:44:41.571Z,20.58
2022-10-28T01:47:22.945Z,23.30
2022-10-28T01:49:52.000Z,18.13
2022-10-28T01:52:20.827Z,21.00
2022-10-28T01:54:52.250Z,20.13
2022-10-28T01:57:19.100Z,20.33
2022-10-28T01:59:46.378Z,23.45
2022-10-28T02:02:15.514Z,19.45
2022-10-28T02:04:42.232Z,22.17
2022-10-28T02:07:08.985Z,24.17
2022-10-28T02:09:48.055Z,21.25
2022-10-28T02:12:23.492Z,25.38
2022-10-28T02:18:02.398Z,24.50
2022-10-28T02:20:45.558Z,26.30
2022-10-28T02:23:24.289Z,25.08
2022-10-28T02:25:59.229Z,25.40
2022-10-28T02:28:51.873Z,26.08
2022-10-28T02:33:49.659Z,21.20
2022-10-28T02:36:16.801Z,26.50
2022-10-28T02:38:46.098Z,21.95
2022-10-28T02:41:25.791Z,23.27
2022-10-28T02:43:54.704Z,24.90
2022-10-28T02:46:21.536Z,21.42
2022-10-28T02:48:59.916Z,28.83
2022-10-28T02:51:46.557Z,23.13
2022-10-28T02:54:15.394Z,23.88
2022-10-28T02:56:57.095Z,34.58
2022-10-28T02:59:24.563Z,20.52
2022-10-28T03:01:51.601Z,24.15
2022-10-28T03:04:18.414Z,23.80
2022-10-28T03:06:45.209Z,20.88
2022-10-28T03:09:11.988Z,22.58
2022-10-28T03:11:38.712Z,22.48
2022-10-28T03:14:05.475Z,25.48
2022-10-28T03:16:32.190Z,25.42
2022-10-28T03:18:59.063Z,21.30
2022-10-28T03:21:25.829Z,24.38
2022-10-28T03:23:52.595Z,21.70
2022-10-28T03:26:19.327Z,21.67
2022-10-28T03:28:46.291Z,28.30
2022-10-28T03:31:13.058Z,21.52
2022-10-28T03:33:39.810Z,23.73
2022-10-28T03:36:06.996Z,20.08
2022-10-28T03:38:33.778Z,20.75
2022-10-28T03:41:00.539Z,27.55
2022-10-28T03:43:27.235Z,26.02
2022-10-28T03:45:53.981Z,19.13
2022-10-28T03:48:20.747Z,24.77
2022-10-28T03:50:47.525Z,22.73
2022-10-28T03:53:14.254Z,19.83
2022-10-28T03:55:41.018Z,24.42
2022-10-28T03:58:07.808Z,25.27
2022-10-28T04:00:34.590Z,27.05
2022-10-28T04:03:01.351Z,26.17
2022-10-28T04:05:28.134Z,29.05
2022-10-28T04:07:54.926Z,28.83
2022-10-28T04:10:21.678Z,24.73
2022-10-28T04:12:48.423Z,20.40
2022-10-28T04:15:15.354Z,23.30
2022-10-28T04:17:42.105Z,24.70
2022-10-28T04:20:09.157Z,20.85
2022-10-28T04:22:35.903Z,23.00
2022-10-28T04:25:02.651Z,21.95
2022-10-28T04:27:29.393Z,25.85
2022-10-28T04:29:56.092Z,21.95
2022-10-28T04:32:22.846Z,26.80
2022-10-28T04:34:49.594Z,23.63
2022-10-28T04:37:20.408Z,25.20
2022-10-28T04:39:47.688Z,23.00
2022-10-28T04:42:14.569Z,17.67
2022-10-28T04:44:41.338Z,24.85
2022-10-28T04:47:08.051Z,21.10
2022-10-28T04:49:38.033Z,26.75
2022-10-28T04:52:05.784Z,24.85
2022-10-28T04:54:32.510Z,24.17
2022-10-28T04:56:59.282Z,23.63
2022-10-28T04:59:26.015Z,23.92
2022-10-28T05:01:52.870Z,24.50
2022-10-28T05:04:19.714Z,21.75
2022-10-28T05:06:46.528Z,23.58
2022-10-28T05:09:13.346Z,20.08
2022-10-28T05:11:40.069Z,23.63
2022-10-28T05:14:06.865Z,23.63
2022-10-28T05:16:33.630Z,23.38
2022-10-28T05:19:00.417Z,22.75
2022-10-28T05:21:27.211Z,21.73
2022-10-28T05:23:54.030Z,19.58
2022-10-28T05:26:20.772Z,20.83
2022-10-28T05:28:50.567Z,21.55
2022-10-28T05:31:17.874Z,18.40
2022-10-28T05:33:44.720Z,21.10
2022-10-28T05:36:11.547Z,20.58
2022-10-28T05:38:40.118Z,20.83
2022-10-28T05:41:06.939Z,19.95
2022-10-28T05:43:33.741Z,20.00
2022-10-28T05:46:00.812Z,19.33
2022-10-28T05:48:27.618Z,20.90
2022-10-28T05:50:54.448Z,21.10
2022-10-28T05:53:21.264Z,21.08
2022-10-28T05:55:48.157Z,18.08
2022-10-28T05:58:15.485Z,21.77
2022-10-28T06:00:42.315Z,18.33
2022-10-28T06:03:11.960Z,20.45
2022-10-28T06:05:43.296Z,19.83
2022-10-28T06:08:11.469Z,15.70
2022-10-28T06:10:38.431Z,21.23
2022-10-28T06:13:04.032Z,19.50
2022-10-28T06:15:31.032Z,18.08
2022-10-28T06:17:57.919Z,23.05
2022-10-28T06:20:24.792Z,19.67
2022-10-28T06:22:52.870Z,21.40
2022-10-28T06:25:20.486Z,18.38
2022-10-28T06:27:54.627Z,19.42
2022-10-28T06:30:22.268Z,18.23
2022-10-28T06:32:49.205Z,16.98
2022-10-28T06:35:16.098Z,19.02
2022-10-28T06:37:43.039Z,18.23
2022-10-28T06:40:10.027Z,17.42
2022-10-28T06:42:36.872Z,17.92
2022-10-28T06:45:04.340Z,19.30
2022-10-28T06:47:32.726Z,17.20
2022-10-28T06:49:59.589Z,19.15
2022-10-28T06:52:26.435Z,19.15
2022-10-28T06:54:53.201Z,22.50
2022-10-28T06:57:20.093Z,23.48
2022-10-28T06:59:46.932Z,22.73
2022-10-28T07:02:14.140Z,19.10
2022-10-28T07:04:41.257Z,19.55
2022-10-28T07:07:08.227Z,19.63
2022-10-28T07:09:39.420Z,23.27
2022-10-28T07:12:07.621Z,22.05
2022-10-28T07:14:34.882Z,19.27
2022-10-28T07:17:01.947Z,18.83
2022-10-28T07:19:28.747Z,19.20
2022-10-28T07:21:55.646Z,19.30
2022-10-28T07:24:22.498Z,20.38
2022-10-28T07:26:51.970Z,23.42
2022-10-28T07:29:21.091Z,20.17
2022-10-28T07:31:47.918Z,20.63
2022-10-28T07:34:14.846Z,17.33
2022-10-28T07:36:41.666Z,18.88
2022-10-28T07:39:09.991Z,20.30
2022-10-28T07:41:37.343Z,23.98
2022-10-28T07:44:04.286Z,23.15
2022-10-28T07:46:31.078Z,18.83
2022-10-28T07:48:57.974Z,17.48
2022-10-28T07:51:24.787Z,21.95
2022-10-28T07:53:51.779Z,19.52
2022-10-28T07:56:18.713Z,21.30
2022-10-28T07:58:46.266Z,22.58
2022-10-28T08:01:14.720Z,19.85
2022-10-28T08:03:41.652Z,19.13
2022-10-28T08:06:10.390Z,21.92
2022-10-28T08:08:37.440Z,24.55
2022-10-28T08:11:14.704Z,18.38
2022-10-28T08:13:41.732Z,19.38
2022-10-28T08:16:08.697Z,19.35
2022-10-28T08:18:36.654Z,22.92
2022-10-28T08:21:03.951Z,20.67
2022-10-28T08:23:30.779Z,20.85
2022-10-28T08:25:57.744Z,21.48
2022-10-28T08:28:24.627Z,21.85
2022-10-28T08:31:04.233Z,20.50
2022-10-28T08:33:38.693Z,18.17
2022-10-28T08:36:06.865Z,18.15
2022-10-28T08:38:33.737Z,17.25
2022-10-28T08:41:32.845Z,16.83
2022-10-28T08:44:18.439Z,14.90
2022-10-28T08:47:03.666Z,16.70
2022-10-28T08:49:31.948Z,18.98
2022-10-28T08:52:11.315Z,17.25
2022-10-28T08:54:43.081Z,18.38
2022-10-28T08:57:18.051Z,18.85
2022-10-28T08:59:45.209Z,19.05
2022-10-28T09:02:31.390Z,23.13
2022-10-28T09:05:12.368Z,18.33
2022-10-28T09:07:39.196Z,23.17
2022-10-28T09:10:06.272Z,21.85
2022-10-28T09:13:04.289Z,17.17
2022-10-28T09:18:40.397Z,16.85
2022-10-28T09:21:13.340Z,16.13
2022-10-28T09:23:59.395Z,15.82
2022-10-28T09:26:44.983Z,20.83
2022-10-28T09:29:32.020Z,16.98
2022-10-28T09:32:09.222Z,14.90
2022-10-28T09:34:48.787Z,14.52
2022-10-28T09:37:20.106Z,14.02
2022-10-28T09:39:51.733Z,15.95
2022-10-28T09:42:25.059Z,13.15
2022-10-28T09:45:01.064Z,12.48
2022-10-28T09:47:30.846Z,13.18
2022-10-28T09:49:59.255Z,17.30
2022-10-28T09:52:31.226Z,11.48
2022-10-28T09:54:58.049Z,8.55
2022-10-28T09:57:29.451Z,12.27
2022-10-28T09:59:56.311Z,10.85
2022-10-28T10:02:31.330Z,8.90
2022-10-28T10:04:58.800Z,8.93
2022-10-28T10:07:33.643Z,11.07
2022-10-28T10:10:01.294Z,7.00
2022-10-28T10:12:28.111Z,9.15
2022-10-28T10:14:56.549Z,9.75
2022-10-28T10:17:47.201Z,8.73
2022-10-28T10:20:18.873Z,7.68
2022-10-28T10:22:46.789Z,8.23
2022-10-28T10:25:19.768Z,7.78
2022-10-28T10:28:02.654Z,7.10
2022-10-28T10:30:41.102Z,8.95
2022-10-28T10:33:12.137Z,8.30
2022-10-28T10:35:38.925Z,12.20
2022-10-28T10:38:05.997Z,8.88
2022-10-28T10:40:39.274Z,8.30
2022-10-28T10:43:18.346Z,7.70
2022-10-28T10:46:11.103Z,10.10
2022-10-28T10:48:37.979Z,8.05
2022-10-28T10:51:06.492Z,8.43
2022-10-28T10:53:33.368Z,9.23
2022-10-28T10:56:10.689Z,10.32
2022-10-28T10:58:51.675Z,6.95
2022-10-28T11:01:21.306Z,9.02
2022-10-28T11:06:35.142Z,10.20
2022-10-28T11:09:04.118Z,6.17
2022-10-28T11:11:37.852Z,9.73
2022-10-28T11:14:10.803Z,8.55
2022-10-28T11:16:54.434Z,10.13
2022-10-28T11:19:32.126Z,10.05
2022-10-28T11:22:29.518Z,9.23
2022-10-28T11:25:18.353Z,7.05
2022-10-28T11:27:56.533Z,11.27
2022-10-28T11:30:45.013Z,8.43
2022-10-28T11:33:34.060Z,11.80
2022-10-28T11:36:22.884Z,10.50
2022-10-28T11:38:49.726Z,9.45
2022-10-28T11:41:51.462Z,8.80
2022-10-28T11:44:27.356Z,11.53
2022-10-28T11:47:05.443Z,10.27
2022-10-28T11:49:47.601Z,9.02
2022-10-28T11:52:49.805Z,7.75
2022-10-28T11:55:18.291Z,12.65
2022-10-28T11:58:21.032Z,11.20
2022-10-28T12:00:56.874Z,10.02
2022-10-28T12:03:48.944Z,9.65
2022-10-28T12:06:16.445Z,12.85
2022-10-28T12:08:52.945Z,12.55
2022-10-28T12:11:32.143Z,11.90
2022-10-28T12:14:23.813Z,11.23
2022-10-28T12:16:56.420Z,10.48
2022-10-28T12:19:27.459Z,13.05
2022-10-28T12:22:05.829Z,11.50
2022-10-28T12:24:35.320Z,10.20
2022-10-28T12:27:06.724Z,10.05
2022-10-28T12:29:37.266Z,13.27
2022-10-28T12:32:30.147Z,10.68
2022-10-28T12:35:07.357Z,12.73
2022-10-28T12:37:46.220Z,12.57
2022-10-28T12:40:32.093Z,11.00
2022-10-28T12:43:04.174Z,7.57
2022-10-28T12:45:31.605Z,9.27
2022-10-28T12:48:25.281Z,10.25
2022-10-28T12:51:13.896Z,8.38
2022-10-28T12:53:52.395Z,8.95
2022-10-28T12:56:30.075Z,10.70
2022-10-28T12:59:16.409Z,11.63
2022-10-28T13:01:44.863Z,9.68
2022-10-28T13:04:12.842Z,8.98
2022-10-28T13:07:07.490Z,9.98
2022-10-28T13:09:48.491Z,8.20
2022-10-28T13:12:35.006Z,9.43
2022-10-28T13:15:23.140Z,12.25
2022-10-28T13:18:20.725Z,10.65
2022-10-28T13:21:11.672Z,8.27
2022-10-28T13:23:40.736Z,9.25
2022-10-28T13:26:13.917Z,10.20
2022-10-28T13:28:46.275Z,10.40
2022-10-28T13:31:14.739Z,8.98
2022-10-28T13:33:57.894Z,8.65
2022-10-28T13:36:30.978Z,9.32
2022-10-28T13:39:01.637Z,9.68
2022-10-28T13:41:40.959Z,9.27
2022-10-28T13:44:10.238Z,11.50
2022-10-28T13:46:58.968Z,13.43
2022-10-28T13:49:26.747Z,9.93
2022-10-28T13:52:20.191Z,10.10
2022-10-28T13:54:46.941Z,14.45
2022-10-28T13:57:36.918Z,9.95
2022-10-28T14:03:02.270Z,9.13
2022-10-28T14:05:39.198Z,10.60
2022-10-28T14:08:18.479Z,8.52
2022-10-28T14:11:07.731Z,12.43
2022-10-28T14:13:46.600Z,10.57
2022-10-28T14:16:25.357Z,9.82
2022-10-28T14:19:08.661Z,10.25
2022-10-28T14:21:46.448Z,10.65
2022-10-28T14:24:31.689Z,10.02
2022-10-28T14:27:12.164Z,9.80
2022-10-28T14:29:50.068Z,8.35
2022-10-28T14:32:32.475Z,6.85
2022-10-28T14:35:12.931Z,10.38
2022-10-28T14:37:58.242Z,9.98
2022-10-28T14:40:36.058Z,10.43
2022-10-28T14:43:08.987Z,7.53
2022-10-28T14:45:53.089Z,11.85
2022-10-28T14:48:57.681Z,8.82
2022-10-28T14:51:28.298Z,10.40
2022-10-28T14:53:59.847Z,8.52
2022-10-28T14:56:27.918Z,10.23
2022-10-28T14:58:58.136Z,10.18
2022-10-28T15:01:26.914Z,10.57
2022-10-28T15:03:59.288Z,10.52
2022-10-28T15:06:37.351Z,9.05
2022-10-28T15:09:23.883Z,9.05
2022-10-28T15:11:59.068Z,9.60
2022-10-28T15:14:31.284Z,8.05
2022-10-28T15:19:27.200Z,8.57
2022-10-28T15:22:05.469Z,8.63
2022-10-28T15:24:32.375Z,9.48
2022-10-28T15:26:59.327Z,8.20
2022-10-28T15:29:26.330Z,7.03
2022-10-28T15:32:14.205Z,10.52
2022-10-28T15:34:41.785Z,8.65
2022-10-28T15:37:08.575Z,7.25
2022-10-28T15:39:35.636Z,12.20
2022-10-28T15:42:02.670Z,6.53
2022-10-28T15:44:38.352Z,7.63
2022-10-28T15:47:15.881Z,10.00
2022-10-28T15:49:42.683Z,8.07
2022-10-28T15:52:18.775Z,9.40
2022-10-28T15:54:58.951Z,9.43
2022-10-28T15:57:30.374Z,9.82
2022-10-28T16:00:22.727Z,6.22
2022-10-28T16:02:53.481Z,5.80
2022-10-28T16:05:32.958Z,7.07
2022-10-28T16:08:15.247Z,10.93
2022-10-28T16:13:23.605Z,9.38
2022-10-28T16:15:55.660Z,10.63
2022-10-28T16:18:23.187Z,7.10
2022-10-28T16:20:50.178Z,6.38
2022-10-28T16:23:18.177Z,12.18
2022-10-28T16:25:44.968Z,8.65
2022-10-28T16:28:20.336Z,8.13
2022-10-28T16:30:47.422Z,10.30
2022-10-28T16:33:14.286Z,12.05
2022-10-28T16:35:41.144Z,11.65
2022-10-28T16:38:12.201Z,11.07
2022-10-28T16:40:51.542Z,9.65
2022-10-28T16:43:20.553Z,8.30
2022-10-28T16:45:48.448Z,9.25
2022-10-28T16:48:16.309Z,11.48
2022-10-28T16:50:56.148Z,11.27
2022-10-28T16:53:23.056Z,11.38
2022-10-28T16:55:49.937Z,9.05
2022-10-28T16:58:17.048Z,10.75
2022-10-28T17:00:44.000Z,9.07
2022-10-28T17:03:16.934Z,7.55
2022-10-28T17:05:44.053Z,7.95
2022-10-28T17:08:11.584Z,8.73
2022-10-28T17:10:40.422Z,9.60
2022-10-28T17:13:09.838Z,6.28
2022-10-28T17:15:36.748Z,10.98
2022-10-28T17:18:03.672Z,9.32
2022-10-28T17:20:30.675Z,9.98
2022-10-28T17:22:58.159Z,8.10
2022-10-28T17:25:25.843Z,7.97
2022-10-28T17:27:55.821Z,7.60
2022-10-28T17:30:23.038Z,9.98
2022-10-28T17:32:51.793Z,9.35
2022-10-28T17:35:19.145Z,8.82
2022-10-28T17:37:46.049Z,9.32
2022-10-28T17:40:13.022Z,17.23
2022-10-28T17:42:39.896Z,7.07
2022-10-28T17:45:07.094Z,7.63
2022-10-28T17:47:34.525Z,10.05
2022-10-28T17:50:01.547Z,8.65
2022-10-28T17:52:29.621Z,7.53
2022-10-28T17:54:58.803Z,11.18
2022-10-28T17:57:27.932Z,8.18
2022-10-28T17:59:54.785Z,10.27
2022-10-28T18:02:21.723Z,8.18
2022-10-28T18:04:48.681Z,10.35
2022-10-28T18:07:15.461Z,9.02
2022-10-28T18:09:45.090Z,14.10
2022-10-28T18:12:12.668Z,8.70
2022-10-28T18:14:39.668Z,7.85
2022-10-28T18:17:06.529Z,8.60
2022-10-28T18:19:33.417Z,7.05
2022-10-28T18:22:00.321Z,12.38
2022-10-28T18:24:27.122Z,7.97
2022-10-28T18:26:54.701Z,9.93
2022-10-28T18:29:21.531Z,11.05
2022-10-28T18:31:48.379Z,10.02
2022-10-28T18:34:15.240Z,9.88
2022-10-28T18:36:42.142Z,12.23
2022-10-28T18:39:09.026Z,11.00
2022-10-28T18:41:38.300Z,14.93
2022-10-28T18:44:05.693Z,14.68
2022-10-28T18:46:35.234Z,17.85
2022-10-28T18:49:02.481Z,8.93
2022-10-28T18:51:29.607Z,11.77
2022-10-28T18:53:56.839Z,11.05
2022-10-28T18:56:25.291Z,10.20
2022-10-28T18:58:52.477Z,13.10
2022-10-28T19:01:21.461Z,11.18
2022-10-28T19:03:54.267Z,10.68
2022-10-28T19:06:21.639Z,16.17
2022-10-28T19:08:55.510Z,14.63
2022-10-28T19:11:23.120Z,10.95
2022-10-28T19:13:49.951Z,10.30
2022-10-28T19:16:16.835Z,16.85
2022-10-28T19:18:43.645Z,11.43
2022-10-28T19:21:12.682Z,13.57
2022-10-28T19:23:39.728Z,11.05
2022-10-28T19:26:06.907Z,11.68
2022-10-28T19:28:39.349Z,15.18
2022-10-28T19:31:08.429Z,15.73
2022-10-28T19:33:35.613Z,12.13
2022-10-28T19:36:04.082Z,10.88
2022-10-28T19:38:32.444Z,13.60
2022-10-28T19:41:03.881Z,14.10
2022-10-28T19:43:30.887Z,14.43
2022-10-28T19:46:14.833Z,10.23
2022-10-28T19:48:43.149Z,12.82
2022-10-28T19:51:14.798Z,14.50
2022-10-28T19:53:41.941Z,15.48
2022-10-28T19:56:08.884Z,15.45
2022-10-28T19:58:35.818Z,10.95
2022-10-28T20:01:05.009Z,12.73
2022-10-28T20:03:34.531Z,14.27
2022-10-28T20:06:07.286Z,14.40
2022-10-28T20:08:38.298Z,12.98
2022-10-28T20:11:06.929Z,13.02
2022-10-28T20:13:34.580Z,12.60
2022-10-28T20:16:03.218Z,12.75
2022-10-28T20:18:31.294Z,10.57
2022-10-28T20:21:09.685Z,15.00
2022-10-28T20:23:36.603Z,15.98
2022-10-28T20:26:04.114Z,13.55
2022-10-28T20:28:30.992Z,16.15
2022-10-28T20:31:01.011Z,17.42
2022-10-28T20:33:28.144Z,19.13
2022-10-28T20:35:55.696Z,22.75
2022-10-28T20:38:22.773Z,18.05
2022-10-28T20:40:50.549Z,18.02
2022-10-28T20:43:20.118Z,16.90
2022-10-28T20:46:00.582Z,17.65
2022-10-28T20:48:28.478Z,16.08
2022-10-28T20:50:59.412Z,18.13
2022-10-28T20:53:27.178Z,13.73
2022-10-28T20:55:55.504Z,16.95
2022-10-28T20:58:24.072Z,16.15
2022-10-28T21:00:53.066Z,17.48
2022-10-28T21:03:20.595Z,18.52
2022-10-28T21:05:47.677Z,14.93
2022-10-28T21:08:14.592Z,17.52
2022-10-28T21:10:41.448Z,14.95
2022-10-28T21:13:08.345Z,14.38
2022-10-28T21:15:39.110Z,16.13
2022-10-28T21:18:06.724Z,16.80
2022-10-28T21:20:35.564Z,17.55
2022-10-28T21:23:02.421Z,14.88
2022-10-28T21:25:29.254Z,13.40
2022-10-28T21:27:57.263Z,16.85
2022-10-28T21:30:24.855Z,12.93
2022-10-28T21:32:51.897Z,12.02
2022-10-28T21:35:18.983Z,12.00
2022-10-28T21:37:45.966Z,13.65
2022-10-28T21:40:13.059Z,9.38
2022-10-28T21:42:39.885Z,13.20
2022-10-28T21:45:07.715Z,13.98
2022-10-28T21:47:34.834Z,14.30
2022-10-28T21:50:01.702Z,18.65
2022-10-28T21:52:28.578Z,14.95
2022-10-28T21:54:55.468Z,22.30
2022-10-28T21:57:30.554Z,19.02
2022-10-28T21:59:57.431Z,23.63
2022-10-28T22:02:24.447Z,20.00
2022-10-28T22:04:51.415Z,27.38
2022-10-28T22:07:18.319Z,31.50
2022-10-28T22:09:45.140Z,33.63
2022-10-28T22:12:14.346Z,34.90
2022-10-28T22:14:41.113Z,35.17
2022-10-28T22:17:07.959Z,40.88
2022-10-28T22:19:34.789Z,37.22
2022-10-28T22:22:01.632Z,34.63
2022-10-28T22:24:28.469Z,39.85
2022-10-28T22:26:55.304Z,53.33
2022-10-28T22:29:22.082Z,47.28
2022-10-28T22:31:49.002Z,29.52
2022-10-28T22:34:15.844Z,26.38
2022-10-28T22:36:44.886Z,22.02
2022-10-28T22:39:11.734Z,21.95
2022-10-28T22:41:38.705Z,20.98
2022-10-28T22:44:07.101Z,19.02
2022-10-28T22:46:36.510Z,20.58
2022-10-28T22:49:04.031Z,17.70
2022-10-28T22:51:30.853Z,23.15
2022-10-28T22:53:57.850Z,21.27
2022-10-28T22:56:25.154Z,37.45
2022-10-28T22:58:56.154Z,32.83
2022-10-28T23:01:23.440Z,35.78
2022-10-28T23:03:51.513Z,22.23
2022-10-28T23:06:20.281Z,23.38
2022-10-28T23:08:47.139Z,23.88
2022-10-28T23:11:14.520Z,20.45
2022-10-28T23:13:41.313Z,17.90
2022-10-28T23:16:11.766Z,14.18
2022-10-28T23:18:38.709Z,13.20
2022-10-28T23:21:06.971Z,10.50
2022-10-28T23:23:33.857Z,11.88
2022-10-28T23:26:00.642Z,12.10
2022-10-28T23:28:27.538Z,12.32
2022-10-28T23:30:54.378Z,13.65
2022-10-28T23:33:21.215Z,10.48
2022-10-28T23:35:57.553Z,11.30
2022-10-28T23:38:24.585Z,14.18
2022-10-28T23:40:58.675Z,12.18
2022-10-28T23:43:26.097Z,15.77
2022-10-28T23:45:52.939Z,11.05
2022-10-28T23:48:20.026Z,10.38
2022-10-28T23:50:46.993Z,17.33
2022-10-28T23:53:13.889Z,13.90
2022-10-28T23:55:43.744Z,16.85
2022-10-28T23:58:11.662Z,20.13
